METAR LIMJ - Aeroporto di Genova Sestri GOA

Genova / Sestri, Italy (LIMJ) 44-25N 008-51E 3M

Nov 14, 2018 - 07:20 AM EST / 2018.11.14 1220 UTC

Wind: from the NE (050 degrees) at 10 MPH (9 KT) gusting to 22 MPH (19 KT) (direction variable):0

Visibility: greater than 7 mile(s):0

Temperature: 66 F (19 C)

Dew Point: 53 F (12 C)

Relative Humidity: 63%

Pressure (altimeter): 30.30 in. Hg (1026 hPa)

ob: LIMJ 141220Z 05009G19KT 020V120 CAVOK 19/12 Q1026

cycle: 12

Dati METAR in tempo reale


Ritieni il contenuto di questa pagina incompleto, non attendibile oppure oggetto di altre problematiche? INVIA UNA SEGNALAZIONE Grazie!

Tags cloud